sensor_id;sensor_type;location;lat;lon;timestamp;P1;durP1;ratioP1;P2;durP2;ratioP2
70270;SDS011;57680;54.292;18.598;2022-08-21T00:01:58;27.48;;;15.90;;
70270;SDS011;57680;54.292;18.598;2022-08-21T00:04:24;26.17;;;16.23;;
70270;SDS011;57680;54.292;18.598;2022-08-21T00:06:50;26.08;;;15.75;;
70270;SDS011;57680;54.292;18.598;2022-08-21T00:09:17;24.70;;;13.80;;
70270;SDS011;57680;54.292;18.598;2022-08-21T00:11:43;22.40;;;13.23;;
70270;SDS011;57680;54.292;18.598;2022-08-21T00:14:09;21.37;;;13.00;;
70270;SDS011;57680;54.292;18.598;2022-08-21T00:16:35;22.30;;;13.25;;
70270;SDS011;57680;54.292;18.598;2022-08-21T00:19:01;23.88;;;14.43;;
70270;SDS011;57680;54.292;18.598;2022-08-21T00:21:27;23.00;;;14.27;;
70270;SDS011;57680;54.292;18.598;2022-08-21T00:23:53;24.23;;;14.25;;
70270;SDS011;57680;54.292;18.598;2022-08-21T00:26:18;21.30;;;12.80;;
70270;SDS011;57680;54.292;18.598;2022-08-21T00:28:44;17.65;;;10.77;;
70270;SDS011;57680;54.292;18.598;2022-08-21T00:31:10;17.00;;;10.30;;
70270;SDS011;57680;54.292;18.598;2022-08-21T00:33:37;16.42;;;9.88;;
70270;SDS011;57680;54.292;18.598;2022-08-21T00:36:03;16.23;;;10.35;;
70270;SDS011;57680;54.292;18.598;2022-08-21T00:38:29;16.08;;;10.52;;
70270;SDS011;57680;54.292;18.598;2022-08-21T00:40:57;16.00;;;10.30;;
70270;SDS011;57680;54.292;18.598;2022-08-21T00:43:26;15.88;;;10.02;;
70270;SDS011;57680;54.292;18.598;2022-08-21T00:45:54;14.73;;;9.68;;
70270;SDS011;57680;54.292;18.598;2022-08-21T00:48:21;16.30;;;9.75;;
70270;SDS011;57680;54.292;18.598;2022-08-21T00:50:52;17.45;;;10.00;;
70270;SDS011;57680;54.292;18.598;2022-08-21T00:53:40;15.13;;;9.53;;
70270;SDS011;57680;54.292;18.598;2022-08-21T00:56:09;15.63;;;9.80;;
70270;SDS011;57680;54.292;18.598;2022-08-21T00:58:37;14.18;;;9.10;;
70270;SDS011;57680;54.292;18.598;2022-08-21T01:01:06;12.77;;;7.95;;
70270;SDS011;57680;54.292;18.598;2022-08-21T01:03:32;14.32;;;8.82;;
70270;SDS011;57680;54.292;18.598;2022-08-21T01:05:58;14.87;;;9.47;;
70270;SDS011;57680;54.292;18.598;2022-08-21T01:08:24;14.80;;;8.80;;
70270;SDS011;57680;54.292;18.598;2022-08-21T01:10:50;13.57;;;7.90;;
70270;SDS011;57680;54.292;18.598;2022-08-21T01:13:18;14.32;;;9.18;;
70270;SDS011;57680;54.292;18.598;2022-08-21T01:15:45;16.75;;;9.48;;
70270;SDS011;57680;54.292;18.598;2022-08-21T01:18:13;13.55;;;8.93;;
70270;SDS011;57680;54.292;18.598;2022-08-21T01:20:42;16.25;;;9.60;;
70270;SDS011;57680;54.292;18.598;2022-08-21T01:23:10;15.63;;;9.60;;
70270;SDS011;57680;54.292;18.598;2022-08-21T01:25:37;15.30;;;9.75;;
70270;SDS011;57680;54.292;18.598;2022-08-21T01:28:11;15.75;;;10.10;;
70270;SDS011;57680;54.292;18.598;2022-08-21T01:30:39;15.40;;;10.00;;
70270;SDS011;57680;54.292;18.598;2022-08-21T01:33:07;15.80;;;9.73;;
70270;SDS011;57680;54.292;18.598;2022-08-21T01:35:32;15.23;;;9.90;;
70270;SDS011;57680;54.292;18.598;2022-08-21T01:37:58;15.55;;;9.80;;
70270;SDS011;57680;54.292;18.598;2022-08-21T01:40:24;15.07;;;9.77;;
70270;SDS011;57680;54.292;18.598;2022-08-21T01:42:49;15.95;;;10.65;;
70270;SDS011;57680;54.292;18.598;2022-08-21T01:45:16;16.80;;;10.63;;
70270;SDS011;57680;54.292;18.598;2022-08-21T01:47:42;15.43;;;9.87;;
70270;SDS011;57680;54.292;18.598;2022-08-21T01:50:09;17.38;;;9.85;;
70270;SDS011;57680;54.292;18.598;2022-08-21T01:52:37;16.73;;;9.30;;
70270;SDS011;57680;54.292;18.598;2022-08-21T01:55:03;14.87;;;9.30;;
70270;SDS011;57680;54.292;18.598;2022-08-21T01:57:30;13.82;;;8.85;;
70270;SDS011;57680;54.292;18.598;2022-08-21T01:59:56;15.35;;;9.40;;
70270;SDS011;57680;54.292;18.598;2022-08-21T02:02:21;12.87;;;7.67;;
70270;SDS011;57680;54.292;18.598;2022-08-21T02:04:47;12.37;;;7.70;;
70270;SDS011;57680;54.292;18.598;2022-08-21T02:07:12;12.27;;;7.95;;
70270;SDS011;57680;54.292;18.598;2022-08-21T02:09:38;11.27;;;7.57;;
70270;SDS011;57680;54.292;18.598;2022-08-21T02:12:04;11.65;;;7.60;;
70270;SDS011;57680;54.292;18.598;2022-08-21T02:14:29;11.63;;;7.20;;
70270;SDS011;57680;54.292;18.598;2022-08-21T02:16:55;12.38;;;7.35;;
70270;SDS011;57680;54.292;18.598;2022-08-21T02:19:21;10.63;;;7.20;;
70270;SDS011;57680;54.292;18.598;2022-08-21T02:21:46;10.77;;;6.60;;
70270;SDS011;57680;54.292;18.598;2022-08-21T02:24:12;10.63;;;6.30;;
70270;SDS011;57680;54.292;18.598;2022-08-21T02:26:37;10.73;;;7.07;;
70270;SDS011;57680;54.292;18.598;2022-08-21T02:29:03;11.60;;;7.30;;
70270;SDS011;57680;54.292;18.598;2022-08-21T02:31:31;11.80;;;7.10;;
70270;SDS011;57680;54.292;18.598;2022-08-21T02:33:57;12.10;;;7.07;;
70270;SDS011;57680;54.292;18.598;2022-08-21T02:36:22;11.93;;;7.33;;
70270;SDS011;57680;54.292;18.598;2022-08-21T02:38:48;12.38;;;7.93;;
70270;SDS011;57680;54.292;18.598;2022-08-21T02:41:15;13.27;;;7.83;;
70270;SDS011;57680;54.292;18.598;2022-08-21T02:43:43;12.85;;;7.72;;
70270;SDS011;57680;54.292;18.598;2022-08-21T02:46:09;12.27;;;7.68;;
70270;SDS011;57680;54.292;18.598;2022-08-21T02:48:37;13.93;;;8.32;;
70270;SDS011;57680;54.292;18.598;2022-08-21T02:51:04;13.73;;;8.67;;
70270;SDS011;57680;54.292;18.598;2022-08-21T02:53:32;12.85;;;8.45;;
70270;SDS011;57680;54.292;18.598;2022-08-21T02:55:59;13.07;;;7.95;;
70270;SDS011;57680;54.292;18.598;2022-08-21T02:58:28;13.50;;;8.30;;
70270;SDS011;57680;54.292;18.598;2022-08-21T03:03:43;12.20;;;7.80;;
70270;SDS011;57680;54.292;18.598;2022-08-21T03:06:11;13.15;;;8.48;;
70270;SDS011;57680;54.292;18.598;2022-08-21T03:08:39;14.00;;;8.32;;
70270;SDS011;57680;54.292;18.598;2022-08-21T03:11:05;13.87;;;8.37;;
70270;SDS011;57680;54.292;18.598;2022-08-21T03:13:31;13.38;;;8.32;;
70270;SDS011;57680;54.292;18.598;2022-08-21T03:15:57;13.15;;;8.60;;
70270;SDS011;57680;54.292;18.598;2022-08-21T03:18:22;14.30;;;8.37;;
70270;SDS011;57680;54.292;18.598;2022-08-21T03:20:48;13.10;;;8.50;;
70270;SDS011;57680;54.292;18.598;2022-08-21T03:23:14;12.80;;;8.63;;
70270;SDS011;57680;54.292;18.598;2022-08-21T03:25:42;13.60;;;8.15;;
70270;SDS011;57680;54.292;18.598;2022-08-21T03:28:11;13.93;;;8.95;;
70270;SDS011;57680;54.292;18.598;2022-08-21T03:30:42;14.48;;;8.70;;
70270;SDS011;57680;54.292;18.598;2022-08-21T03:33:09;13.60;;;9.17;;
70270;SDS011;57680;54.292;18.598;2022-08-21T03:35:35;13.93;;;8.82;;
70270;SDS011;57680;54.292;18.598;2022-08-21T03:38:01;14.90;;;8.67;;
70270;SDS011;57680;54.292;18.598;2022-08-21T03:40:27;13.10;;;8.23;;
70270;SDS011;57680;54.292;18.598;2022-08-21T03:42:52;13.87;;;8.10;;
70270;SDS011;57680;54.292;18.598;2022-08-21T03:45:18;13.73;;;8.10;;
70270;SDS011;57680;54.292;18.598;2022-08-21T03:48:00;13.35;;;8.48;;
70270;SDS011;57680;54.292;18.598;2022-08-21T03:50:29;13.70;;;8.60;;
70270;SDS011;57680;54.292;18.598;2022-08-21T03:52:57;12.52;;;7.93;;
70270;SDS011;57680;54.292;18.598;2022-08-21T03:55:23;14.30;;;9.07;;
70270;SDS011;57680;54.292;18.598;2022-08-21T03:57:50;13.25;;;8.40;;
70270;SDS011;57680;54.292;18.598;2022-08-21T04:00:17;14.18;;;8.73;;
70270;SDS011;57680;54.292;18.598;2022-08-21T04:02:44;15.63;;;9.03;;
70270;SDS011;57680;54.292;18.598;2022-08-21T04:05:11;13.90;;;8.55;;
70270;SDS011;57680;54.292;18.598;2022-08-21T04:07:38;13.88;;;8.38;;
70270;SDS011;57680;54.292;18.598;2022-08-21T04:10:05;14.65;;;7.60;;
70270;SDS011;57680;54.292;18.598;2022-08-21T04:12:32;14.13;;;8.13;;
70270;SDS011;57680;54.292;18.598;2022-08-21T04:14:58;14.53;;;8.53;;
70270;SDS011;57680;54.292;18.598;2022-08-21T04:17:23;14.82;;;8.40;;
70270;SDS011;57680;54.292;18.598;2022-08-21T04:19:49;11.93;;;7.83;;
70270;SDS011;57680;54.292;18.598;2022-08-21T04:22:15;15.03;;;8.50;;
70270;SDS011;57680;54.292;18.598;2022-08-21T04:24:41;14.50;;;8.32;;
70270;SDS011;57680;54.292;18.598;2022-08-21T04:27:06;15.07;;;8.75;;
70270;SDS011;57680;54.292;18.598;2022-08-21T04:29:32;14.67;;;8.13;;
70270;SDS011;57680;54.292;18.598;2022-08-21T04:31:57;14.17;;;8.40;;
70270;SDS011;57680;54.292;18.598;2022-08-21T04:34:23;14.15;;;8.38;;
70270;SDS011;57680;54.292;18.598;2022-08-21T04:36:49;15.53;;;8.10;;
70270;SDS011;57680;54.292;18.598;2022-08-21T04:39:14;14.63;;;8.15;;
70270;SDS011;57680;54.292;18.598;2022-08-21T04:41:40;15.17;;;8.57;;
70270;SDS011;57680;54.292;18.598;2022-08-21T04:44:06;16.17;;;8.18;;
70270;SDS011;57680;54.292;18.598;2022-08-21T04:46:33;15.53;;;8.27;;
70270;SDS011;57680;54.292;18.598;2022-08-21T04:48:59;16.38;;;8.63;;
70270;SDS011;57680;54.292;18.598;2022-08-21T04:51:26;15.60;;;9.07;;
70270;SDS011;57680;54.292;18.598;2022-08-21T04:54:00;16.70;;;8.55;;
70270;SDS011;57680;54.292;18.598;2022-08-21T04:56:33;16.67;;;8.87;;
70270;SDS011;57680;54.292;18.598;2022-08-21T04:59:03;18.33;;;9.30;;
70270;SDS011;57680;54.292;18.598;2022-08-21T05:01:32;15.68;;;8.75;;
70270;SDS011;57680;54.292;18.598;2022-08-21T05:04:00;15.45;;;9.13;;
70270;SDS011;57680;54.292;18.598;2022-08-21T05:06:30;16.67;;;8.80;;
70270;SDS011;57680;54.292;18.598;2022-08-21T05:08:58;15.20;;;9.10;;
70270;SDS011;57680;54.292;18.598;2022-08-21T05:11:25;16.05;;;9.60;;
70270;SDS011;57680;54.292;18.598;2022-08-21T05:13:50;17.57;;;9.37;;
70270;SDS011;57680;54.292;18.598;2022-08-21T05:16:16;14.30;;;8.93;;
70270;SDS011;57680;54.292;18.598;2022-08-21T05:18:42;14.90;;;9.30;;
70270;SDS011;57680;54.292;18.598;2022-08-21T05:21:08;14.85;;;9.40;;
70270;SDS011;57680;54.292;18.598;2022-08-21T05:23:34;15.95;;;8.75;;
70270;SDS011;57680;54.292;18.598;2022-08-21T05:26:01;14.85;;;9.10;;
70270;SDS011;57680;54.292;18.598;2022-08-21T05:28:27;14.23;;;7.97;;
70270;SDS011;57680;54.292;18.598;2022-08-21T05:30:52;15.25;;;9.25;;
70270;SDS011;57680;54.292;18.598;2022-08-21T05:33:18;15.87;;;8.90;;
70270;SDS011;57680;54.292;18.598;2022-08-21T05:35:44;14.55;;;9.07;;
70270;SDS011;57680;54.292;18.598;2022-08-21T05:38:09;15.23;;;9.07;;
70270;SDS011;57680;54.292;18.598;2022-08-21T05:40:35;16.17;;;8.40;;
70270;SDS011;57680;54.292;18.598;2022-08-21T05:43:01;15.23;;;8.80;;
70270;SDS011;57680;54.292;18.598;2022-08-21T05:45:29;13.50;;;8.30;;
70270;SDS011;57680;54.292;18.598;2022-08-21T05:47:57;13.68;;;7.88;;
70270;SDS011;57680;54.292;18.598;2022-08-21T05:50:22;14.17;;;8.40;;
70270;SDS011;57680;54.292;18.598;2022-08-21T05:52:48;15.60;;;7.97;;
70270;SDS011;57680;54.292;18.598;2022-08-21T05:55:14;12.68;;;7.22;;
70270;SDS011;57680;54.292;18.598;2022-08-21T05:57:39;11.83;;;7.10;;
70270;SDS011;57680;54.292;18.598;2022-08-21T06:00:06;9.60;;;5.50;;
70270;SDS011;57680;54.292;18.598;2022-08-21T06:02:34;9.20;;;5.95;;
70270;SDS011;57680;54.292;18.598;2022-08-21T06:05:00;10.80;;;6.33;;
70270;SDS011;57680;54.292;18.598;2022-08-21T06:07:26;9.60;;;5.55;;
70270;SDS011;57680;54.292;18.598;2022-08-21T06:09:51;9.93;;;6.07;;
70270;SDS011;57680;54.292;18.598;2022-08-21T06:12:17;9.70;;;6.30;;
70270;SDS011;57680;54.292;18.598;2022-08-21T06:14:43;9.73;;;5.50;;
70270;SDS011;57680;54.292;18.598;2022-08-21T06:17:10;9.75;;;5.90;;
70270;SDS011;57680;54.292;18.598;2022-08-21T06:19:37;11.67;;;5.93;;
70270;SDS011;57680;54.292;18.598;2022-08-21T06:22:03;9.50;;;5.68;;
70270;SDS011;57680;54.292;18.598;2022-08-21T06:24:29;10.13;;;5.70;;
70270;SDS011;57680;54.292;18.598;2022-08-21T06:26:56;9.13;;;5.35;;
70270;SDS011;57680;54.292;18.598;2022-08-21T06:29:22;9.17;;;5.57;;
70270;SDS011;57680;54.292;18.598;2022-08-21T06:31:48;9.85;;;5.72;;
70270;SDS011;57680;54.292;18.598;2022-08-21T06:34:15;9.48;;;5.82;;
70270;SDS011;57680;54.292;18.598;2022-08-21T06:36:41;10.53;;;6.27;;
70270;SDS011;57680;54.292;18.598;2022-08-21T06:39:06;9.45;;;5.85;;
70270;SDS011;57680;54.292;18.598;2022-08-21T06:41:32;9.30;;;5.50;;
70270;SDS011;57680;54.292;18.598;2022-08-21T06:43:58;10.63;;;6.15;;
70270;SDS011;57680;54.292;18.598;2022-08-21T06:46:24;9.30;;;5.97;;
70270;SDS011;57680;54.292;18.598;2022-08-21T06:48:53;9.52;;;6.40;;
70270;SDS011;57680;54.292;18.598;2022-08-21T06:51:18;9.87;;;5.40;;
70270;SDS011;57680;54.292;18.598;2022-08-21T06:53:44;8.93;;;5.60;;
70270;SDS011;57680;54.292;18.598;2022-08-21T06:56:10;8.88;;;5.22;;
70270;SDS011;57680;54.292;18.598;2022-08-21T06:58:35;9.53;;;6.20;;
70270;SDS011;57680;54.292;18.598;2022-08-21T07:01:02;9.68;;;5.80;;
70270;SDS011;57680;54.292;18.598;2022-08-21T07:03:30;9.57;;;6.00;;
70270;SDS011;57680;54.292;18.598;2022-08-21T07:05:57;9.50;;;5.53;;
70270;SDS011;57680;54.292;18.598;2022-08-21T07:08:24;9.37;;;5.27;;
70270;SDS011;57680;54.292;18.598;2022-08-21T07:10:50;7.97;;;4.40;;
70270;SDS011;57680;54.292;18.598;2022-08-21T07:13:17;7.75;;;4.63;;
70270;SDS011;57680;54.292;18.598;2022-08-21T07:15:42;8.20;;;4.60;;
70270;SDS011;57680;54.292;18.598;2022-08-21T07:18:09;7.35;;;4.22;;
70270;SDS011;57680;54.292;18.598;2022-08-21T07:20:35;9.45;;;5.50;;
70270;SDS011;57680;54.292;18.598;2022-08-21T07:23:02;9.20;;;4.80;;
70270;SDS011;57680;54.292;18.598;2022-08-21T07:25:30;10.27;;;5.43;;
70270;SDS011;57680;54.292;18.598;2022-08-21T07:27:56;9.70;;;5.07;;
70270;SDS011;57680;54.292;18.598;2022-08-21T07:30:21;9.87;;;5.47;;
70270;SDS011;57680;54.292;18.598;2022-08-21T07:32:47;10.70;;;5.93;;
70270;SDS011;57680;54.292;18.598;2022-08-21T07:35:16;11.80;;;6.00;;
70270;SDS011;57680;54.292;18.598;2022-08-21T07:37:43;8.93;;;5.32;;
70270;SDS011;57680;54.292;18.598;2022-08-21T07:40:09;9.43;;;5.90;;
70270;SDS011;57680;54.292;18.598;2022-08-21T07:42:39;10.47;;;6.03;;
70270;SDS011;57680;54.292;18.598;2022-08-21T07:45:05;10.65;;;6.13;;
70270;SDS011;57680;54.292;18.598;2022-08-21T07:47:31;11.20;;;5.80;;
70270;SDS011;57680;54.292;18.598;2022-08-21T07:49:57;11.17;;;6.10;;
70270;SDS011;57680;54.292;18.598;2022-08-21T07:52:22;11.82;;;6.32;;
70270;SDS011;57680;54.292;18.598;2022-08-21T07:54:48;11.03;;;6.00;;
70270;SDS011;57680;54.292;18.598;2022-08-21T07:57:14;10.05;;;5.68;;
70270;SDS011;57680;54.292;18.598;2022-08-21T07:59:39;10.23;;;6.13;;
70270;SDS011;57680;54.292;18.598;2022-08-21T08:02:05;11.63;;;5.90;;
70270;SDS011;57680;54.292;18.598;2022-08-21T08:04:31;10.70;;;6.03;;
70270;SDS011;57680;54.292;18.598;2022-08-21T08:06:56;9.73;;;5.75;;
70270;SDS011;57680;54.292;18.598;2022-08-21T08:09:22;11.13;;;5.90;;
70270;SDS011;57680;54.292;18.598;2022-08-21T08:11:47;9.33;;;5.20;;
70270;SDS011;57680;54.292;18.598;2022-08-21T08:14:13;10.20;;;5.57;;
70270;SDS011;57680;54.292;18.598;2022-08-21T08:16:38;9.55;;;5.30;;
70270;SDS011;57680;54.292;18.598;2022-08-21T08:19:04;9.67;;;5.10;;
70270;SDS011;57680;54.292;18.598;2022-08-21T08:21:30;10.07;;;5.53;;
70270;SDS011;57680;54.292;18.598;2022-08-21T08:23:57;10.80;;;5.83;;
70270;SDS011;57680;54.292;18.598;2022-08-21T08:26:22;8.65;;;4.85;;
70270;SDS011;57680;54.292;18.598;2022-08-21T08:28:48;9.13;;;5.00;;
70270;SDS011;57680;54.292;18.598;2022-08-21T08:31:14;9.43;;;5.40;;
70270;SDS011;57680;54.292;18.598;2022-08-21T08:33:39;9.20;;;5.30;;
70270;SDS011;57680;54.292;18.598;2022-08-21T08:36:05;8.97;;;4.40;;
70270;SDS011;57680;54.292;18.598;2022-08-21T08:38:37;9.88;;;4.80;;
70270;SDS011;57680;54.292;18.598;2022-08-21T08:41:09;8.27;;;4.80;;
70270;SDS011;57680;54.292;18.598;2022-08-21T08:43:37;7.88;;;4.82;;
70270;SDS011;57680;54.292;18.598;2022-08-21T08:46:06;9.45;;;4.72;;
70270;SDS011;57680;54.292;18.598;2022-08-21T08:52:07;7.72;;;4.40;;
70270;SDS011;57680;54.292;18.598;2022-08-21T08:54:28;7.83;;;4.30;;
70270;SDS011;57680;54.292;18.598;2022-08-21T08:57:07;9.50;;;4.82;;
70270;SDS011;57680;54.292;18.598;2022-08-21T08:59:43;7.65;;;4.47;;
70270;SDS011;57680;54.292;18.598;2022-08-21T09:02:12;7.93;;;4.60;;
70270;SDS011;57680;54.292;18.598;2022-08-21T09:04:39;8.80;;;4.68;;
70270;SDS011;57680;54.292;18.598;2022-08-21T09:12:52;7.15;;;4.05;;
70270;SDS011;57680;54.292;18.598;2022-08-21T09:15:36;7.60;;;4.03;;
70270;SDS011;57680;54.292;18.598;2022-08-21T09:21:18;7.50;;;3.77;;
70270;SDS011;57680;54.292;18.598;2022-08-21T09:26:30;8.38;;;4.38;;
70270;SDS011;57680;54.292;18.598;2022-08-21T09:29:01;7.93;;;4.10;;
70270;SDS011;57680;54.292;18.598;2022-08-21T09:31:31;7.87;;;4.43;;
70270;SDS011;57680;54.292;18.598;2022-08-21T09:34:11;8.40;;;4.47;;
70270;SDS011;57680;54.292;18.598;2022-08-21T09:36:39;8.63;;;4.40;;
70270;SDS011;57680;54.292;18.598;2022-08-21T09:39:08;11.80;;;5.00;;
70270;SDS011;57680;54.292;18.598;2022-08-21T09:41:36;9.18;;;4.70;;
70270;SDS011;57680;54.292;18.598;2022-08-21T09:44:03;7.30;;;4.40;;
70270;SDS011;57680;54.292;18.598;2022-08-21T09:46:31;9.53;;;4.90;;
70270;SDS011;57680;54.292;18.598;2022-08-21T09:48:58;8.52;;;4.45;;
70270;SDS011;57680;54.292;18.598;2022-08-21T09:51:30;8.68;;;4.32;;
70270;SDS011;57680;54.292;18.598;2022-08-21T09:59:38;7.43;;;4.10;;
70270;SDS011;57680;54.292;18.598;2022-08-21T10:04:56;6.85;;;3.85;;
70270;SDS011;57680;54.292;18.598;2022-08-21T10:07:25;7.97;;;3.63;;
70270;SDS011;57680;54.292;18.598;2022-08-21T10:10:06;9.07;;;4.10;;
70270;SDS011;57680;54.292;18.598;2022-08-21T10:21:17;7.47;;;3.90;;
70270;SDS011;57680;54.292;18.598;2022-08-21T10:29:05;6.47;;;3.30;;
70270;SDS011;57680;54.292;18.598;2022-08-21T10:39:34;6.63;;;3.00;;
70270;SDS011;57680;54.292;18.598;2022-08-21T10:42:08;7.40;;;3.22;;
70270;SDS011;57680;54.292;18.598;2022-08-21T10:47:47;6.80;;;3.08;;
70270;SDS011;57680;54.292;18.598;2022-08-21T10:55:39;6.30;;;3.42;;
70270;SDS011;57680;54.292;18.598;2022-08-21T10:58:11;6.95;;;3.47;;
70270;SDS011;57680;54.292;18.598;2022-08-21T11:00:46;7.72;;;3.55;;
70270;SDS011;57680;54.292;18.598;2022-08-21T11:06:23;6.00;;;3.10;;
70270;SDS011;57680;54.292;18.598;2022-08-21T11:08:55;5.60;;;2.85;;
70270;SDS011;57680;54.292;18.598;2022-08-21T11:14:13;5.68;;;2.55;;
70270;SDS011;57680;54.292;18.598;2022-08-21T11:16:46;7.38;;;2.80;;
70270;SDS011;57680;54.292;18.598;2022-08-21T11:22:18;6.53;;;2.72;;
70270;SDS011;57680;54.292;18.598;2022-08-21T11:24:56;6.88;;;2.90;;
70270;SDS011;57680;54.292;18.598;2022-08-21T11:27:43;5.88;;;2.83;;
70270;SDS011;57680;54.292;18.598;2022-08-21T11:30:14;7.25;;;3.40;;
70270;SDS011;57680;54.292;18.598;2022-08-21T11:43:16;5.43;;;2.60;;
70270;SDS011;57680;54.292;18.598;2022-08-21T11:45:51;7.50;;;3.00;;
70270;SDS011;57680;54.292;18.598;2022-08-21T11:51:18;6.03;;;2.70;;
70270;SDS011;57680;54.292;18.598;2022-08-21T11:53:54;5.70;;;2.58;;
70270;SDS011;57680;54.292;18.598;2022-08-21T11:56:45;5.28;;;2.70;;
70270;SDS011;57680;54.292;18.598;2022-08-21T12:02:15;7.22;;;2.85;;
70270;SDS011;57680;54.292;18.598;2022-08-21T12:04:51;6.07;;;2.95;;
70270;SDS011;57680;54.292;18.598;2022-08-21T12:07:36;6.28;;;2.80;;
70270;SDS011;57680;54.292;18.598;2022-08-21T12:10:08;5.95;;;2.90;;
70270;SDS011;57680;54.292;18.598;2022-08-21T12:12:46;5.60;;;2.30;;
70270;SDS011;57680;54.292;18.598;2022-08-21T12:17:54;5.55;;;2.67;;
70270;SDS011;57680;54.292;18.598;2022-08-21T12:20:38;5.88;;;2.78;;
70270;SDS011;57680;54.292;18.598;2022-08-21T12:25:42;5.27;;;2.20;;
70270;SDS011;57680;54.292;18.598;2022-08-21T12:28:14;4.63;;;1.80;;
70270;SDS011;57680;54.292;18.598;2022-08-21T12:30:47;4.78;;;1.67;;
70270;SDS011;57680;54.292;18.598;2022-08-21T12:35:52;4.00;;;1.85;;
70270;SDS011;57680;54.292;18.598;2022-08-21T12:38:26;4.17;;;1.80;;
70270;SDS011;57680;54.292;18.598;2022-08-21T12:40:55;6.35;;;2.10;;
70270;SDS011;57680;54.292;18.598;2022-08-21T12:43:33;6.43;;;2.00;;
70270;SDS011;57680;54.292;18.598;2022-08-21T12:46:02;5.80;;;2.03;;
70270;SDS011;57680;54.292;18.598;2022-08-21T12:51:17;6.37;;;2.20;;
70270;SDS011;57680;54.292;18.598;2022-08-21T12:53:49;6.38;;;2.40;;
70270;SDS011;57680;54.292;18.598;2022-08-21T12:56:25;5.70;;;2.35;;
70270;SDS011;57680;54.292;18.598;2022-08-21T12:58:57;6.43;;;2.75;;
70270;SDS011;57680;54.292;18.598;2022-08-21T13:01:29;5.57;;;2.20;;
70270;SDS011;57680;54.292;18.598;2022-08-21T13:04:01;6.10;;;2.30;;
70270;SDS011;57680;54.292;18.598;2022-08-21T13:06:30;5.45;;;2.33;;
70270;SDS011;57680;54.292;18.598;2022-08-21T13:09:03;8.68;;;2.40;;
70270;SDS011;57680;54.292;18.598;2022-08-21T13:11:31;5.63;;;2.30;;
70270;SDS011;57680;54.292;18.598;2022-08-21T13:13:58;5.63;;;2.08;;
70270;SDS011;57680;54.292;18.598;2022-08-21T13:16:27;8.73;;;2.20;;
70270;SDS011;57680;54.292;18.598;2022-08-21T13:18:58;5.10;;;2.30;;
70270;SDS011;57680;54.292;18.598;2022-08-21T13:21:30;4.68;;;2.03;;
70270;SDS011;57680;54.292;18.598;2022-08-21T13:26:54;5.05;;;1.70;;
70270;SDS011;57680;54.292;18.598;2022-08-21T13:29:21;5.27;;;1.60;;
70270;SDS011;57680;54.292;18.598;2022-08-21T13:31:53;4.00;;;1.58;;
70270;SDS011;57680;54.292;18.598;2022-08-21T13:34:23;4.07;;;1.63;;
70270;SDS011;57680;54.292;18.598;2022-08-21T13:36:52;5.38;;;1.63;;
70270;SDS011;57680;54.292;18.598;2022-08-21T13:39:22;6.07;;;1.67;;
70270;SDS011;57680;54.292;18.598;2022-08-21T13:41:49;4.33;;;2.00;;
70270;SDS011;57680;54.292;18.598;2022-08-21T13:44:23;4.05;;;1.70;;
70270;SDS011;57680;54.292;18.598;2022-08-21T13:46:57;5.13;;;1.90;;
70270;SDS011;57680;54.292;18.598;2022-08-21T13:49:36;4.20;;;1.70;;
70270;SDS011;57680;54.292;18.598;2022-08-21T13:52:12;4.68;;;1.77;;
70270;SDS011;57680;54.292;18.598;2022-08-21T13:54:52;4.07;;;1.77;;
70270;SDS011;57680;54.292;18.598;2022-08-21T13:57:38;4.72;;;2.00;;
70270;SDS011;57680;54.292;18.598;2022-08-21T14:00:15;6.32;;;2.40;;
70270;SDS011;57680;54.292;18.598;2022-08-21T14:02:51;6.82;;;2.70;;
70270;SDS011;57680;54.292;18.598;2022-08-21T14:05:37;5.53;;;2.30;;
70270;SDS011;57680;54.292;18.598;2022-08-21T14:08:10;6.40;;;2.03;;
70270;SDS011;57680;54.292;18.598;2022-08-21T14:10:49;6.53;;;3.35;;
70270;SDS011;57680;54.292;18.598;2022-08-21T14:15:59;5.85;;;2.35;;
70270;SDS011;57680;54.292;18.598;2022-08-21T14:18:26;6.87;;;2.80;;
70270;SDS011;57680;54.292;18.598;2022-08-21T14:21:14;5.68;;;2.78;;
70270;SDS011;57680;54.292;18.598;2022-08-21T14:23:47;6.97;;;2.78;;
70270;SDS011;57680;54.292;18.598;2022-08-21T14:26:13;5.23;;;2.60;;
70270;SDS011;57680;54.292;18.598;2022-08-21T14:28:42;5.53;;;2.15;;
70270;SDS011;57680;54.292;18.598;2022-08-21T14:31:15;4.93;;;2.20;;
70270;SDS011;57680;54.292;18.598;2022-08-21T14:33:42;6.15;;;2.30;;
70270;SDS011;57680;54.292;18.598;2022-08-21T14:36:08;4.93;;;2.20;;
70270;SDS011;57680;54.292;18.598;2022-08-21T14:38:35;5.67;;;2.20;;
70270;SDS011;57680;54.292;18.598;2022-08-21T14:41:08;5.00;;;2.30;;
70270;SDS011;57680;54.292;18.598;2022-08-21T14:43:40;4.90;;;2.22;;
70270;SDS011;57680;54.292;18.598;2022-08-21T14:46:06;7.10;;;2.20;;
70270;SDS011;57680;54.292;18.598;2022-08-21T14:48:32;5.70;;;2.50;;
70270;SDS011;57680;54.292;18.598;2022-08-21T14:50:57;8.07;;;2.50;;
70270;SDS011;57680;54.292;18.598;2022-08-21T14:53:23;7.43;;;2.92;;
70270;SDS011;57680;54.292;18.598;2022-08-21T14:55:49;7.55;;;2.40;;
70270;SDS011;57680;54.292;18.598;2022-08-21T14:58:29;8.07;;;2.77;;
70270;SDS011;57680;54.292;18.598;2022-08-21T15:00:56;5.82;;;2.30;;
70270;SDS011;57680;54.292;18.598;2022-08-21T15:03:23;4.97;;;2.10;;
70270;SDS011;57680;54.292;18.598;2022-08-21T15:05:49;4.68;;;2.13;;
70270;SDS011;57680;54.292;18.598;2022-08-21T15:08:15;4.50;;;1.73;;
70270;SDS011;57680;54.292;18.598;2022-08-21T15:10:41;3.53;;;1.60;;
70270;SDS011;57680;54.292;18.598;2022-08-21T15:13:07;4.70;;;1.95;;
70270;SDS011;57680;54.292;18.598;2022-08-21T15:15:34;4.43;;;1.50;;
70270;SDS011;57680;54.292;18.598;2022-08-21T15:18:11;4.88;;;1.48;;
70270;SDS011;57680;54.292;18.598;2022-08-21T15:20:36;5.20;;;1.83;;
70270;SDS011;57680;54.292;18.598;2022-08-21T15:23:03;4.13;;;1.48;;
70270;SDS011;57680;54.292;18.598;2022-08-21T15:25:29;5.33;;;1.83;;
70270;SDS011;57680;54.292;18.598;2022-08-21T15:27:55;5.88;;;1.90;;
70270;SDS011;57680;54.292;18.598;2022-08-21T15:30:21;4.87;;;1.80;;
70270;SDS011;57680;54.292;18.598;2022-08-21T15:32:47;6.60;;;2.00;;
70270;SDS011;57680;54.292;18.598;2022-08-21T15:35:12;5.35;;;2.40;;
70270;SDS011;57680;54.292;18.598;2022-08-21T15:37:38;5.93;;;2.00;;
70270;SDS011;57680;54.292;18.598;2022-08-21T15:40:04;5.57;;;2.27;;
70270;SDS011;57680;54.292;18.598;2022-08-21T15:42:32;6.47;;;2.30;;
70270;SDS011;57680;54.292;18.598;2022-08-21T15:44:58;7.00;;;2.30;;
70270;SDS011;57680;54.292;18.598;2022-08-21T15:47:27;7.18;;;2.40;;
70270;SDS011;57680;54.292;18.598;2022-08-21T15:49:55;6.73;;;2.67;;
70270;SDS011;57680;54.292;18.598;2022-08-21T15:52:21;6.50;;;2.42;;
70270;SDS011;57680;54.292;18.598;2022-08-21T15:54:48;7.10;;;2.80;;
70270;SDS011;57680;54.292;18.598;2022-08-21T15:57:14;7.03;;;2.33;;
70270;SDS011;57680;54.292;18.598;2022-08-21T15:59:52;6.53;;;2.20;;
70270;SDS011;57680;54.292;18.598;2022-08-21T16:02:27;6.63;;;2.60;;
70270;SDS011;57680;54.292;18.598;2022-08-21T16:04:55;6.53;;;2.58;;
70270;SDS011;57680;54.292;18.598;2022-08-21T16:07:22;6.43;;;2.75;;
70270;SDS011;57680;54.292;18.598;2022-08-21T16:09:47;6.33;;;2.60;;
70270;SDS011;57680;54.292;18.598;2022-08-21T16:12:16;7.50;;;2.13;;
70270;SDS011;57680;54.292;18.598;2022-08-21T16:14:45;6.75;;;2.20;;